Terminal Aerodrome Forecast
Issued by NWS

Home | Current Version | Previous Version | Text Only | Print | Product List | Glossary Off
Versions: 1 2 3 4 5 6 7 8 9 10 11 12 13 14 15 16 17 18 19 20 21 22 23 24 25 26 27 28 29

000
FTUS43 KLOT 232327
TAFGYY
TAF
KGYY 232327Z 2400/2424 02012KT P6SM -SHRA OVC008
     FM240400 03012KT 3SM SHRA BR OVC005
     FM241000 04012KT 2SM -RADZ BR VCSH OVC004
     FM241500 17006KT P6SM SCT007 BKN015
     FM241900 20010KT P6SM SCT020 BKN250=

USA.gov is the U.S. government's official web portal to all federal, state and local government web resources and services.